Minaki, Canada
Current Conditions -  °F | °C
As of 3:00 AM on Thursday 23 Oct 2014 (Local Time) from CYQK Reporting Station
Light Rain Light Rain  
Wind Chill: 52°   Ceiling: 800
Heat Index: 52°   Visibility: 12mi
Dew Point: 48°   Wind: 13mph
Humidity: 88%   Direction: 190°S
Pressure: 29.82"   Gusts: NA
Location:  49.99°N, 94.67°W
Report Text: CYQK 230800Z 19011KT 12SM -RA OVC008 11/09 A2982 RMK SC8 SLP105
Loading
Personal Weather Stations






























Interactive Weather Map
Tropical Storm Tracking
New forecast layout! Learn more

10-Day Weather Forecast

Advertisements
Track Severe Weather on mobile